KECU

Details ICAO KECU
Name EDWARDS CO
Region United States
Timezone America/Chicago (UTC-5.0)
Plans Departing 1
Arriving 1
Stats Elevation 2,372 ft / 723 m (AMSL)
Location 29.946919° -100.173856°
Runways 1
Magnetic Variation 5.103° E
Sunrise 2018-05-20 11:46:00 UTC / 2018-05-20 06:46:00 Local
Sunset 2018-05-21 01:31:20 UTC / 2018-05-20 20:31:20 Local
Advertisement - Login to hide

Runways

ID Width Length Bearing (true) Bearing (mag) Surface Threshold Offset Overrun Length
14 50 ft / 15 m 4,057 ft / 1,237 m 145.35° 140.25° Asphalt 278 ft / 85 m 0 ft / 0 m
32 50 ft / 15 m 4,057 ft / 1,237 m 325.35° 320.25° Asphalt 0 ft / 0 m 0 ft / 0 m

Map

Weather


0- 5 10 15 20 25 30 35+ Temperature / ° C

Clouds and Precipitation
Forecast for 2018-05-21 00:00 UTC. Updated 2 hours ago

Ground ~20,000 ft ~40,000 ft Winds

METAR

KECU 210135Z AUTO 34003KT 10SM CLR 21/15 A3005 RMK AO2

TAF

Not found

Frequencies

Recorded 118.17 MHz AWOS 3
Approach 119.60 MHz DEL RIO APP
Unicom 122.90 MHz CTAF
Departure 119.60 MHz DEL RIO DEP
Warning: Do not use this data for real-world aviation or navigation. No guarantee of current accuracy is given.